| Station | Date | Time | Temp (°F) | RH (%) | Dew Pt (°F) | Wind Spd (mph) | Wind Dir (°) | Wind Gust (mph) | Wind Gst Dir (°) | Latest Rain (In) | Soil Moist (%) | Soil Temp (°F) | Daily Rain (In) | Daily Min Temp (°F) | Daily Max Temp (°F) | Daily Max Wind (mph) |
|---|---|---|---|---|---|---|---|---|---|---|---|---|---|---|---|---|
| Hobart Mills | 5/2/26 | 0930 | 50.6 0.8 | 69 16 | 40.8 5.7 | 0.0 1.1 | N | 0 | 0.0 3.8 | ESE | 119 | 0.00 | - | 32.0 0.0 | 0.00 | 35.0 5.7 | 50.7 0.9 | 3.4 0.5 |
| Prosser Dam | 5/2/26 | 0930 | 48.0 0.5 | 70 17 | 38.6 7.3 | 0.9 0.4 | NNW | 333 | 2.9 0.9 | NNW | 337 | 0.00 | 21.3 0.7 | 49.2 1.6 | 0.00 | 33.6 6.0 | 48.7 0.3 | 4.1 0.7 |
| West Incline Village | 5/2/26 | 0930 | 51.5 1.4 | 43 5 | 29.8 4.1 | 1.8 1.3 | ESE | 122 | 5.1 2.4 | ESE | 105 | 0.00 | 30.8 0.1 | 44.3 0.9 | 0.00 | 43.8 2.6 | 51.8 1.4 | 9.8 2.4 |
| Incline Village (Fairview Blvd) | 5/2/26 | 0930 | 52.4 1.5 | 44 8 | 31.4 6.2 | 0.0 1.1 | WSW | 246 | 1.1 3.2 | SW | 228 | 0.00 | 24.2 0.1 | 51.9 1.3 | 0.00 | 45.5 1.5 | 52.4 1.4 | 3.7 4.8 |
| Incline Village (Diamond Peak) | 5/2/26 | 0930 | 50.0 1.9 | 47 11 | 30.4 7.9 | 1.1 2.5 | SSE | 164 | 6.3 3.6 | S | 184 | 0.00 | 8.5 0.1 | 45.3 1.8 | 0.00 | 46.2 2.5 | 50.0 1.2 | 6.3 3.6 |
| Incline Village (Mill Creek) | 5/2/26 | 0930 | 53.2 2.2 | 51 13 | 35.7 9.2 | 0.2 0.1 | WNW | 296 | 2.7 0.9 | WNW | 286 | 0.00 | 9.9 0.1 | 45.6 0.9 | 0.00 | 44.0 1.5 | 53.5 1.4 | 2.7 2.0 |
| Incline Village (Lakeshore Blvd) | 5/2/26 | 0930 | 49.7 1.2 | 75 0 | 42.3 1.2 | 0.5 1.3 | SSW | 208 | 1.9 1.2 | SSE | 163 | 0.00 | 31.6 0.4 | 49.7 1.9 | 0.00 | 39.6 3.7 | 50.0 0.9 | 4.3 0.4 |
| Glenbrook | 5/2/26 | 0930 | 48.6 0.6 | 82 9 | 43.4 3.4 | 1.8 1.5 | WSW | 247 | 4.3 1.9 | SW | 233 | 0.00 | 44.3 0.0 | 44.8 0.6 | 0.00 | 40.3 3.0 | 48.8 0.4 | 4.3 4.5 |
| Zephyr Cove | 5/2/26 | 0930 | 52.9 2.7 | 59 2 | 39.2 3.6 | 0.0 0.4 | N | 0 | 0.0 1.5 | SSW | 213 | 0.00 | - | 34.3 0.0 | 0.00 | 43.1 13.7 | 53.0 6.4 | 1.1 6.2 |
| Kingsbury Grade | 5/2/26 | 0930 | 55.8 4.0 | 38 4 | 30.3 6.0 | 1.1 3.0 | W | 274 | 5.6 5.2 | SW | 219 | 0.00 | 5.8 0.0 | 53.4 2.1 | 0.00 | 41.8 4.5 | 56.2 3.9 | 5.7 5.1 |
| South Daggett Pass (Ridge) | 5/2/26 | 0930 | 53.2 5.3 | 43 5 | 31.4 7.7 | 0.9 3.5 | NNE | 24 | 5.2 6.0 | NW | 324 | 0.00 | 6.6 0.1 | 48.5 1.2 | 0.00 | 44.9 1.8 | 53.5 5.3 | 5.2 6.3 |
| Palomino Valley | 5/2/26 | 0930 | 63.6 5.1 | 23 7 | 24.8 1.9 | 0.2 1.7 | NE | 49 | 3.7 3.5 | NE | 49 | 0.00 | 6.8 0.1 | 62.9 2.7 | 0.00 | 41.8 7.8 | 64.1 4.5 | 4.7 3.7 |
| East Cold Springs | 5/2/26 | 0930 | 61.0 3.8 | 35 7 | 33.2 8.7 | 1.9 5.8 | E | 87 | 4.1 7.5 | E | 89 | 0.00 | 1.5 0.0 | 56.0 1.6 | 0.00 | 48.1 2.5 | 61.6 3.8 | 11.2 0.4 |
| Peavine | 5/2/26 | 0930 | 59.6 5.2 | 32 3 | 29.9 6.6 | 5.1 1.7 | S | 187 | 11.0 0.7 | SSW | 207 | 0.00 | - | 53.4 0.0 | 0.00 | 49.7 5.4 | 60.1 5.0 | 16.0 2.1 |
| West Verdi Peak | 5/2/26 | 0930 | 56.4 3.1 | 41 5 | 33.2 5.8 | 1.4 2.2 | SE | 134 | 10.4 2.5 | SE | 126 | 0.00 | 16.9 0.8 | 51.4 1.8 | 0.00 | 48.9 8.6 | 56.7 2.8 | 10.4 1.7 |
| West Verdi | 5/2/26 | 0930 | 57.5 1.3 | 53 18 | 40.5 11.3 | 2.5 0.3 | ESE | 118 | 4.7 1.9 | SE | 128 | 0.00 | 7.9 0.1 | 61.0 1.8 | 0.00 | 46.7 7.5 | 57.8 1.2 | 6.6 0.0 |
| South Verdi | 5/2/26 | 0930 | 57.1 3.1 | 43 9 | 34.7 8.7 | 2.9 5.4 | WSW | 248 | 7.8 4.3 | WSW | 248 | 0.00 | 16.8 0.5 | 58.1 2.5 | 0.00 | 45.8 2.8 | 57.6 3.1 | 20.4 8.0 |
| Northwest Reno | 5/2/26 | 0930 | 60.5 2.9 | 34 6 | 32.4 7.0 | 4.4 1.7 | SE | 125 | 7.8 1.7 | SE | 127 | 0.00 | 24.3 0.1 | 62.7 2.0 | 0.00 | 51.6 5.2 | 60.9 3.0 | 16.5 7.0 |
| North Lawton | 5/2/26 | 0930 | 60.4 2.9 | 38 10 | 34.4 9.8 | 2.4 5.2 | ESE | 103 | 4.8 5.7 | ESE | 103 | 0.00 | - | 39.1 0.0 | 0.00 | 50.1 8.7 | 60.8 3.2 | 13.3 2.0 |
| West Reno (Mogul) | 5/2/26 | 0930 | 59.7 3.3 | 36 5 | 33.0 6.5 | 2.5 3.4 | ENE | 67 | 5.6 3.9 | E | 84 | 0.00 | 39.0 0.3 | 61.3 0.8 | 0.00 | 48.8 5.8 | 60.2 3.3 | 10.6 0.2 |
| Caughlin (Hunter Lake Trail) | 9/16/25 | 0800 | 59.7 3.5 | 41 11 | 35.9 2.7 | 0.0 0.0 | N | 0 | 0.0 0.0 | ENE | 66 | 0.00 | 15.7 0.0 | 69.8 0.5 | 0.00 | 55.7 3.2 | 67.7 9.1 | 9.4 0.9 |
| ArrowCreek | 5/2/26 | 0930 | 57.6 1.1 | 37 3 | 31.5 3.1 | 2.0 0.4 | NNW | 342 | 4.5 1.5 | NE | 35 | 0.00 | - | 32.0 0.0 | 0.00 | 48.9 4.6 | 58.0 1.1 | 9.8 1.7 |
| Tracy | 5/2/26 | 0930 | 62.0 0.6 | 21 2 | 21.5 2.2 | 0.3 8.6 | NW | 315 | 1.4 13.5 | WNW | 292 | 0.00 | 8.1 0.1 | 63.5 1.0 | 0.00 | 48.0 4.7 | 63.1 0.1 | 4.6 10.3 |
| Virginia Highlands | 5/2/26 | 0930 | 60.5 5.6 | 32 3 | 30.2 7.4 | 6.9 1.2 | S | 174 | 14.0 2.1 | SSE | 154 | 0.00 | 7.2 0.0 | 57.2 1.0 | 0.00 | 52.2 5.4 | 61.1 5.0 | 14.0 2.1 |
| Virginia City | 5/2/26 | 0930 | 57.2 4.9 | 38 8 | 31.9 10.4 | 7.6 2.8 | SSE | 165 | 15.2 6.2 | S | 173 | 0.00 | 8.5 0.1 | 54.7 1.8 | 0.00 | 51.0 3.5 | 57.6 5.0 | 15.2 6.1 |
| Six Mile Canyon | 9/9/25 | 0630 | 60.2 9.6 | 37 6 | 33.7 4.8 | 4.1 2.5 | W | 277 | 6.1 2.9 | WNW | 286 | 0.00 | 12.5 0.0 | 75.5 0.7 | 0.00 | 57.9 7.6 | 64.4 1.9 | 7.0 3.9 |
| Mt Rose Highway | 4/30/26 | 0510 | 40.8 4.7 | 47 13 | 22.3 1.3 | 2.3 0.2 | WSW | 243 | 4.8 2.1 | WSW | 246 | 0.00 | 24.1 0.3 | 43.0 0.8 | 0.00 | 40.5 4.7 | 43.0 5.3 | 7.7 0.4 |
| Pleasant Valley | 5/2/26 | 0930 | 61.1 1.7 | 39 11 | 35.8 9.6 | 3.1 1.5 | SW | 235 | 6.8 2.1 | SW | 231 | 0.00 | 2.8 0.1 | 63.4 1.6 | 0.00 | 46.0 4.7 | 61.3 1.1 | 6.8 2.0 |
| New Washoe City | 5/2/26 | 0930 | 61.9 4.2 | 38 7 | 36.3 8.9 | 5.3 2.1 | SW | 235 | 9.9 2.7 | SW | 227 | 0.00 | 4.6 0.0 | 59.4 1.2 | 0.00 | 46.1 5.3 | 62.2 4.2 | 9.9 0.0 |
| Franktown Creek | 5/2/26 | 0930 | 60.1 1.1 | 42 8 | 36.8 6.3 | 5.1 3.1 | S | 181 | 8.2 3.5 | S | 180 | 0.00 | 11.2 0.1 | 56.9 1.2 | 0.00 | 45.2 6.6 | 60.3 1.1 | 8.2 3.1 |
| Musgrove Creek | 5/2/26 | 0930 | 58.8 1.9 | 42 12 | 35.7 9.7 | 2.9 0.5 | NE | 49 | 5.6 1.1 | NE | 52 | 0.00 | 39.2 0.2 | 52.5 0.6 | 0.00 | 49.7 3.0 | 62.0 4.4 | 9.7 2.9 |
| East Carson | 11/23/24 | 0110 | 28.6 28.4 | - | - | 4.7 11.0 | SW | 220 | 14.7 10.1 | SW | 219 | 0.02 | - | 50.9 0.1 | 0.02 | -25.9 79.1 | 42.9 14.6 | 16.0 10.7 |
| Kings Canyon | 5/2/26 | 0930 | 56.8 0.4 | 46 17 | 36.4 11.9 | 3.2 0.4 | NE | 47 | 6.6 2.5 | NE | 56 | 0.00 | 15.5 0.5 | 57.9 1.8 | 0.00 | 45.8 5.5 | 57.4 0.3 | 7.7 1.4 |
| Carson City (Voltaire Canyon) | 5/2/26 | 0930 | 58.9 1.5 | 43 12 | 36.3 9.4 | 4.2 0.1 | ESE | 109 | 9.6 1.4 | SE | 126 | 0.00 | 2.8 0.0 | 62.5 1.1 | 0.00 | 50.9 3.5 | 60.8 2.9 | 11.2 2.4 |
| Jacks Valley | 5/2/26 | 0930 | 60.0 3.2 | 42 10 | 37.0 9.7 | 2.6 1.0 | SSW | 204 | 5.8 1.1 | SSW | 198 | 0.00 | 9.9 0.3 | 62.8 2.2 | 0.00 | 47.0 3.4 | 60.3 3.3 | 5.8 1.1 |
| Genoa | 5/2/26 | 0930 | 60.2 3.9 | 41 2 | 36.7 4.9 | 1.1 0.5 | NNE | 18 | 5.5 2.0 | NE | 45 | 0.00 | 5.8 0.2 | 57.8 2.1 | 0.00 | 47.6 5.1 | 61.0 3.8 | 5.5 1.0 |
| South Genoa (Walleys Hot Springs) | 5/2/26 | 0930 | 58.4 4.2 | 51 6 | 40.2 7.1 | 3.5 1.1 | E | 83 | 5.5 0.7 | E | 88 | 0.00 | 13.7 0.3 | 64.2 1.2 | 0.00 | 42.9 5.9 | 58.9 4.0 | 7.6 1.4 |
| SW Gardnerville (HWY 88) | 5/2/26 | 0930 | 54.2 2.8 | 55 5 | 38.6 5.0 | 0.1 3.0 | WSW | 239 | 1.9 3.5 | W | 274 | 0.00 | 3.4 0.1 | 58.7 1.3 | 0.00 | 42.1 8.3 | 54.8 2.7 | 10.8 4.2 |
| Sheridan | 5/2/26 | 0930 | 55.1 0.8 | 54 8 | 38.5 5.1 | 2.4 0.0 | NNE | 23 | 4.6 0.4 | NNE | 24 | 0.00 | 2.5 0.1 | 60.2 1.3 | 0.00 | 45.8 6.2 | 56.7 1.6 | 6.7 0.5 |
| Ruhenstroth | 5/2/26 | 0930 | 57.8 2.3 | 50 11 | 39.4 8.2 | 0.8 2.5 | WNW | 290 | 2.5 4.3 | W | 280 | 0.00 | 13.1 0.2 | 59.1 2.2 | 0.00 | 45.0 5.5 | 57.9 2.0 | 7.8 0.1 |
| Double Spring | 5/2/26 | 0930 | 58.6 3.7 | 37 6 | 32.2 7.9 | 2.7 5.2 | NNE | 20 | 5.1 6.7 | N | 8 | 0.00 | 28.8 0.0 | 57.7 1.6 | 0.00 | 39.6 9.0 | 59.5 3.9 | 6.2 6.8 |
| North Topaz Lake | 5/2/26 | 0930 | 59.3 4.0 | 36 5 | 32.5 7.4 | 1.6 2.5 | SE | 131 | 5.3 2.7 | SSE | 150 | 0.00 | 9.0 0.1 | 59.2 0.4 | 0.00 | 51.6 3.7 | 59.7 4.0 | 8.2 0.1 |
| Wild Oat Mountain | 5/2/26 | 0930 | 57.4 3.8 | 39 7 | 32.4 8.3 | 1.6 0.9 | NNE | 28 | 3.7 1.2 | NE | 37 | 0.00 | 16.8 0.1 | 59.6 1.5 | 0.00 | 51.9 5.8 | 57.8 3.8 | 5.1 0.1 |
| Smith Valley | 5/2/26 | 0930 | 57.2 0.8 | 35 5 | 29.8 4.0 | 4.7 1.1 | NNE | 13 | 7.7 0.7 | N | 7 | 0.00 | 6.0 0.0 | 62.2 1.6 | 0.00 | 45.6 2.8 | 58.2 1.6 | 7.7 2.9 |
| Pine Grove Mountain | 5/2/26 | 0930 | 52.7 4.1 | 35 4 | 25.8 6.7 | 6.4 4.6 | SSE | 168 | 14.0 9.1 | SSE | 150 | 0.00 | 14.5 0.0 | 49.8 2.4 | 0.00 | 46.0 4.5 | 53.5 4.2 | 23.7 12.3 |
| Paradise Hill | 5/2/26 | 0930 | 64.2 5.7 | 19 6 | 21.6 1.5 | 5.2 2.5 | SSE | 156 | 11.4 0.7 | SSE | 166 | 0.00 | 8.0 0.0 | 56.4 1.0 | 0.00 | 38.9 0.3 | 64.7 5.4 | 11.4 9.1 |
| Winnemucca | 5/2/26 | 0930 | 63.5 7.2 | 21 7 | 22.8 1.1 | 2.6 6.9 | N | 351 | 6.1 8.7 | NNW | 341 | 0.00 | 5.9 0.1 | 56.0 1.8 | 0.00 | 41.1 2.6 | 64.1 6.9 | 9.4 5.3 |
| NE Elko | 5/2/26 | 0930 | 53.8 1.5 | 25 1 | 18.6 0.6 | 5.4 0.5 | E | 87 | 8.4 6.7 | E | 90 | 0.00 | 12.4 0.1 | 52.8 0.9 | 0.00 | 28.6 5.3 | 54.4 1.2 | 8.7 6.5 |
| North Elko | 5/2/26 | 0930 | 54.9 1.1 | 23 1 | 17.4 0.4 | 4.3 4.5 | ENE | 75 | 9.7 5.2 | E | 84 | 0.00 | 28.5 0.1 | 52.8 1.2 | 0.00 | 42.5 0.8 | 55.4 0.9 | 10.4 8.3 |
| South Elko | 5/2/26 | 0930 | 57.0 17.7 | 28 14 | 24.4 25.7 | 8.4 4.2 | SE | 136 | 13.9 1.7 | SE | 131 | 0.00 | 18.9 0.0 | 51.9 1.8 | 0.00 | 46.3 2.4 | 114.3 9.4 | 15.3 1.0 |
| Lamoille | 1/28/26 | 1720 | 33.2 0.5 | 65 17 | 22.8 6.3 | 5.8 1.5 | SSE | 166 | 7.7 1.9 | SE | 139 | 0.00 | 12.2 0.0 | 33.4 0.1 | 0.02 | 23.5 2.0 | 36.5 5.9 | 25.6 17.4 |
| Reid Gardner Sub | 5/2/26 | 0930 | 77.3 0.4 | 14 0 | 25.0 0.1 | 1.8 3.4 | N | 1 | 7.2 4.8 | NNE | 18 | 0.00 | 24.5 0.3 | 70.2 0.4 | 0.00 | 52.7 12.1 | 77.9 0.6 | 10.8 4.2 |
| Corn Creek | 5/2/26 | 0930 | 73.2 3.8 | 14 6 | 20.7 5.9 | 10.0 0.1 | ENE | 78 | 24.6 9.7 | E | 85 | 0.00 | 4.0 0.1 | 70.2 0.3 | 0.00 | 57.0 5.7 | 73.8 3.8 | 24.6 5.5 |
| Lucky Strike | 5/2/26 | 0930 | 62.2 2.3 | 15 9 | 14.0 9.2 | 8.4 1.6 | E | 100 | 13.7 12.9 | ESE | 102 | 0.00 | 4.3 0.0 | 62.9 1.2 | 0.00 | 54.4 0.8 | 62.9 2.5 | 17.8 8.8 |
| Lower Angel Peak | 5/2/26 | 0930 | 56.6 2.3 | 18 13 | 13.8 10.4 | 3.3 4.6 | ESE | 117 | 12.4 3.6 | NNE | 19 | 0.00 | 10.6 0.0 | 52.2 0.8 | 0.00 | 42.0 0.1 | 57.4 1.5 | 12.4 3.6 |
| Angel Peak | 5/2/26 | 0930 | 44.6 0.1 | 21 19 | 7.5 14.4 | 12.2 8.3 | ESE | 117 | 21.6 10.1 | ESE | 109 | 0.00 | 3.4 0.1 | 46.4 1.4 | 0.00 | 40.1 0.6 | 46.0 0.3 | 22.4 10.8 |
| Upper Kyle Canyon | 5/2/26 | 0930 | 50.6 1.1 | 22 15 | 13.4 11.0 | 6.3 0.2 | SE | 146 | 13.9 1.1 | SE | 136 | 0.00 | 13.9 0.0 | 50.7 0.4 | 0.00 | 37.6 0.5 | 51.6 1.0 | 15.6 2.4 |
| Mt Charleston | 5/2/26 | 0930 | 51.5 0.9 | 21 15 | 12.7 11.9 | 2.8 0.2 | E | 81 | 9.8 0.2 | N | 11 | 0.00 | 18.4 0.1 | 46.6 0.1 | 0.00 | 39.7 0.1 | 52.0 0.6 | 11.6 0.9 |
| Mid Kyle Canyon | 5/2/26 | 0930 | 57.3 2.1 | 18 13 | 13.8 11.1 | 7.5 0.6 | ENE | 73 | 14.3 1.2 | E | 86 | 0.00 | 7.1 0.0 | 54.8 0.4 | 0.00 | 43.0 0.4 | 57.9 1.9 | 21.4 4.8 |
| Blue Diamond | 5/2/26 | 0930 | 70.6 1.5 | 14 5 | 19.6 6.3 | 7.1 0.4 | ESE | 114 | 11.9 0.9 | ESE | 118 | 0.00 | 3.6 0.0 | 67.6 0.2 | 0.00 | 45.4 0.0 | 71.1 1.2 | 15.5 2.5 |
| Artesian Sub | 5/2/26 | 0930 | 78.7 2.4 | 13 5 | 23.4 5.3 | 4.2 1.9 | NE | 41 | 12.3 6.1 | N | 3 | 0.00 | 13.5 0.0 | 73.2 0.6 | 0.00 | 63.0 1.3 | 79.5 2.8 | 12.3 3.1 |
| North Henderson | 5/2/26 | 0920 | 76.9 0.1 | 14 2 | 23.6 2.8 | 0.8 8.0 | SSE | 159 | 3.2 13.9 | S | 176 | 0.00 | 8.9 0.1 | 78.2 0.6 | 0.00 | 65.1 4.1 | 78.0 0.7 | 10.6 6.6 |
| Sandy Valley | 5/2/26 | 0930 | 75.6 1.9 | 15 5 | 24.0 5.9 | 15.3 13.3 | E | 101 | 23.6 18.8 | ESE | 105 | 0.00 | 4.5 0.0 | 76.1 2.3 | 0.00 | 65.2 4.5 | 76.1 1.9 | 35.0 19.0 |
| Searchlight | 5/2/26 | 0930 | 71.6 3.8 | 16 5 | 23.4 3.6 | 9.6 5.4 | NNE | 28 | 15.3 7.0 | NNE | 23 | 0.00 | 4.6 0.0 | 70.1 0.0 | 0.00 | 59.3 1.4 | 72.3 3.6 | 19.0 10.4 |
| Laughlin | 5/2/26 | 0930 | 86.4 1.8 | 13 2 | 29.2 2.7 | 12.9 5.0 | NNE | 14 | 20.4 7.8 | NNE | 12 | 0.00 | 4.1 0.0 | 81.9 0.5 | 0.00 | 72.2 3.6 | 86.9 1.6 | 20.6 11.0 |
| Max | 86.4 | 82 | 43.4 | 15.3 | - | 24.6 | - | 0.00 | 44.3 | 81.9 | 0.00 | 72.2 | 114.3 | 35.0 | ||
| Avg | 59.2 | 36 | 29.6 | 3.8 | - | 8.2 | - | 0.00 | 13.1 | 56.4 | - | - | - | - | ||
| Min | 44.6 | 13 | 7.5 | 0.0 | - | 0.0 | - | 0.00 | 1.5 | 32.0 | 0.00 | 28.6 | 46.0 | 1.1 |
| Station | Date | Daily Max Temp (°F) | Daily Min Temp (°F) | Daily Max RH (%) | Daily Min RH (%) | Wind Spd (mph) | Wind Dir (°) | Daily Max Wind (mph) | Max Wind Dir (°) | Time of Max Wind | Daily Rain (In) | Weekly Precip (In) | Season Precip (In) | Soil Moist (%) | Fuel Temp (°F) | Fuel Moisture (%) | MinBV Day (V) |
|---|---|---|---|---|---|---|---|---|---|---|---|---|---|---|---|---|---|
| Hobart Mills | 12/23/25 | 51.8 11.3 | 33.9 2.1 | 88 12 | 42 34 | 2.1 1.7 | SW | 224 | 18.4 8.6 | WSW | 240 | 2307 | 0.65 | 6.21 | 15.12 | - | 37.6 2.8 | 42 19 | 8.0 0.7 |
| Prosser Dam | 5/1/26 | 67.4 3.2 | 27.5 3.1 | 96 2 | 15 9 | 2.3 0.2 | W | 261 | 14.5 0.1 | E | 93 | 1526 | 0.00 | 0.19 | 7.64 | 21.7 0.6 | 53.7 3.5 | 8 2 | 12.5 0.0 |
| West Incline Village | 5/1/26 | 61.2 3.2 | 41.2 1.8 | 62 0 | 14 13 | 3.0 0.1 | NE | 42 | 14.9 0.8 | S | 190 | 1046 | 0.00 | 0.07 | 6.58 | 30.9 0.1 | 54.8 2.6 | 6 3 | 12.4 0.0 |
| Incline Village (Fairview Blvd) | 5/1/26 | 64.2 3.2 | 43.9 3.5 | 59 3 | 11 15 | 1.8 0.1 | NNE | 26 | 12.4 1.2 | S | 180 | 1217 | 0.00 | 0.00 | 6.18 | 24.3 0.1 | 57.2 2.2 | 6 1 | 12.6 0.0 |
| Incline Village (Diamond Peak) | 5/1/26 | 58.6 2.6 | 43.8 2.2 | 57 7 | 15 14 | 0.0 3.6 | N | 0 | 9.2 7.2 | N | 352 | 0959 | 0.00 | 0.00 | 0.41 | 8.6 0.1 | -11.4 0.1 | - | 12.4 0.0 |
| Incline Village (Mill Creek) | 5/1/26 | 64.5 5.1 | 42.5 2.8 | 61 11 | 12 13 | 1.4 0.3 | SSE | 155 | 16.4 1.4 | N | 354 | 1116 | 0.00 | 0.00 | 5.91 | 10.0 0.1 | - | - | 12.4 0.0 |
| Incline Village (Lakeshore Blvd) | 5/1/26 | 62.6 2.7 | 35.9 3.3 | 78 3 | 16 9 | 1.2 0.6 | WNW | 298 | 11.6 3.1 | ENE | 63 | 1103 | 0.00 | 0.00 | 6.05 | 31.4 0.6 | 59.1 2.2 | 11 0 | 12.3 0.0 |
| Glenbrook | 5/1/26 | 64.4 3.2 | 37.4 3.1 | 76 12 | 20 6 | 1.9 0.2 | SW | 230 | 18.3 1.2 | ESE | 111 | 1126 | 0.00 | 0.18 | 4.79 | 44.3 0.0 | 51.5 2.0 | 10 1 | 12.5 0.0 |
| Zephyr Cove | 5/1/26 | 62.1 | 29.4 | 94 | 23 | 0.0 | N | 0 | 7.3 | SW | 221 | 1655 | 0.00 | 0.13 | 0.66 | - | 45.5 | - | 12.4 |
| Kingsbury Grade | 5/1/26 | 61.6 1.1 | 37.3 3.9 | 59 8 | 22 2 | 2.4 0.1 | E | 82 | 15.2 3.1 | E | 86 | 1118 | 0.00 | 0.03 | 4.87 | 6.2 0.1 | 54.5 2.9 | 5 2 | 12.5 0.1 |
| South Daggett Pass (Ridge) | 5/1/26 | 58.8 2.6 | 43.2 2.7 | 57 1 | 24 3 | 3.1 0.2 | SE | 135 | 16.6 1.7 | ENE | 73 | 1342 | 0.00 | 0.01 | 3.32 | 6.6 0.0 | 52.2 2.2 | 6 1 | 12.5 0.0 |
| Palomino Valley | 5/1/26 | 74.2 3.7 | 34.0 1.7 | 56 9 | 10 7 | 2.9 0.2 | E | 83 | 25.8 6.1 | WNW | 303 | 1130 | 0.00 | 0.00 | 1.14 | 6.7 0.0 | 59.1 4.5 | 6 1 | 12.5 0.0 |
| East Cold Springs | 5/1/26 | 69.0 2.7 | 45.6 5.2 | 45 27 | 15 7 | 4.9 0.4 | NE | 40 | 26.1 6.1 | ESE | 115 | 1325 | 0.00 | 0.00 | 1.41 | 1.5 0.0 | 57.3 1.7 | 7 1 | 12.6 0.0 |
| Peavine | 5/1/26 | 66.1 3.1 | 44.2 5.1 | 42 14 | 16 7 | 5.5 0.5 | S | 169 | 17.9 2.8 | NE | 55 | 1405 | 0.00 | 0.00 | 1.47 | - | - | - | 12.5 0.0 |
| West Verdi Peak | 5/1/26 | 66.0 2.5 | 40.3 1.9 | 54 23 | 18 4 | 2.2 0.2 | E | 96 | 17.1 2.1 | ESE | 107 | 1451 | 0.00 | 0.02 | 5.61 | 17.4 0.7 | 57.2 2.5 | 7 2 | 12.6 0.0 |
| West Verdi | 5/1/26 | 70.3 2.5 | 39.1 1.4 | 67 13 | 15 4 | 3.1 0.2 | NE | 53 | 17.0 0.1 | E | 93 | 1220 | 0.00 | 0.00 | 5.27 | 8.0 0.1 | 60.5 2.2 | 8 1 | 12.6 0.0 |
| South Verdi | 5/1/26 | 67.0 1.8 | 43.0 1.7 | 51 8 | 16 5 | 8.0 1.2 | WSW | 248 | 29.3 4.3 | WSW | 248 | 1159 | 0.00 | 0.00 | 4.24 | 17.4 0.7 | 60.4 1.8 | 7 1 | 12.6 0.0 |
| Northwest Reno | 5/1/26 | 70.9 3.4 | 46.4 1.3 | 42 16 | 13 6 | 4.6 0.7 | ENE | 71 | 25.3 2.9 | ESE | 111 | 1604 | 0.00 | 0.00 | 1.00 | 24.3 0.1 | -17.7 0.0 | - | 12.5 0.0 |
| North Lawton | 5/1/26 | 70.3 2.2 | 41.4 1.1 | 57 10 | 15 4 | 5.2 0.2 | NNW | 336 | 21.1 2.5 | NE | 53 | 1333 | 0.00 | 0.00 | 1.70 | - | - | - | 12.5 0.0 |
| West Reno (Mogul) | 5/1/26 | 69.2 2.5 | 43.1 2.1 | 53 16 | 14 6 | 5.4 1.1 | WNW | 293 | 23.2 6.2 | NE | 55 | 1250 | 0.00 | 0.00 | 3.90 | 39.1 0.2 | 62.4 2.6 | 1 1 | 12.5 0.0 |
| Caughlin (Hunter Lake Trail) | 9/15/25 | 78.6 1.3 | 52.5 3.7 | 58 7 | 23 2 | 4.2 2.5 | S | 173 | 13.0 20.5 | NNE | 31 | 1309 | 0.00 | 0.32 | 8.05 | 15.7 0.1 | 67.4 0.5 | 7 1 | 12.7 0.0 |
| ArrowCreek | 5/1/26 | 70.4 3.5 | 44.3 3.0 | 47 12 | 14 5 | 4.0 1.1 | SE | 128 | 16.4 5.3 | NE | 49 | 1233 | 0.00 | 0.00 | 4.56 | - | - | - | 12.4 0.0 |
| Tracy | 5/1/26 | 74.4 3.0 | 43.3 0.9 | 46 8 | 11 6 | 4.4 0.4 | E | 84 | 20.1 2.9 | ENE | 71 | 1441 | 0.00 | 0.00 | 0.86 | 8.0 0.0 | 62.9 1.3 | 5 1 | 12.6 0.0 |
| Virginia Highlands | 5/1/26 | 65.8 2.0 | 46.8 2.6 | 35 8 | 12 9 | 4.3 1.3 | SE | 130 | 17.5 1.4 | ESE | 104 | 1136 | 0.00 | 0.00 | 1.71 | 7.2 0.0 | 60.2 3.0 | 6 1 | 12.6 0.0 |
| Virginia City | 5/1/26 | 65.5 2.7 | 47.5 2.6 | 33 8 | 15 7 | 3.0 0.2 | N | 11 | 15.8 1.2 | SE | 136 | 1705 | 0.00 | 0.00 | 1.45 | 8.6 0.0 | 56.5 1.6 | 3 1 | 12.6 0.0 |
| Six Mile Canyon | 9/8/25 | 98.8 16.5 | 50.2 7.6 | 44 3 | 11 1 | 7.2 0.3 | WSW | 252 | 27.0 4.6 | SSE | 159 | 1325 | 0.00 | 0.00 | 0.89 | 12.6 0.1 | 69.7 3.0 | 4 0 | 12.4 0.2 |
| Mt Rose Highway | 4/29/26 | 56.6 7.9 | 35.6 4.1 | 63 16 | 31 6 | 2.2 0.0 | NW | 305 | 10.8 4.2 | NE | 35 | 1152 | 0.00 | 0.08 | 4.93 | 24.3 0.3 | 47.6 8.0 | 3 0 | 12.4 0.0 |
| Pleasant Valley | 5/1/26 | 71.9 3.1 | 41.3 1.9 | 63 2 | 15 3 | 3.0 0.1 | SW | 234 | 14.5 1.1 | W | 259 | 1334 | 0.00 | 0.00 | 2.03 | 2.8 0.0 | 65.9 3.7 | 6 0 | 12.6 0.0 |
| New Washoe City | 5/1/26 | 70.1 1.7 | 40.8 2.1 | 47 13 | 14 5 | 4.2 0.6 | NE | 51 | 19.0 2.0 | ENE | 71 | 1959 | 0.00 | 0.00 | 1.31 | 4.6 0.0 | 62.2 2.6 | 5 1 | 12.5 0.0 |
| Franktown Creek | 5/1/26 | 69.9 3.0 | 38.6 0.7 | 67 1 | 13 7 | 1.4 0.3 | NW | 325 | 10.2 0.1 | S | 187 | 1117 | 0.00 | 0.00 | 5.33 | 11.2 0.0 | 56.9 2.0 | 7 1 | 12.6 0.0 |
| Musgrove Creek | 5/1/26 | 66.8 2.5 | 46.8 2.4 | 56 1 | 16 6 | 1.6 0.0 | SE | 141 | 11.0 3.0 | NNE | 17 | 1337 | 0.00 | 0.04 | 7.03 | 39.2 0.3 | 59.1 2.3 | 9 1 | 12.5 0.0 |
| East Carson | 11/22/24 | 63.8 0.3 | 41.7 4.6 | 85 21 | 21 9 | 14.9 6.0 | SW | 224 | 46.6 12.7 | S | 171 | 1835 | 0.05 | 0.05 | 4.48 | 2.5 0.0 | 53.9 0.3 | 9 0 | 12.6 0.0 |
| Kings Canyon | 5/1/26 | 68.9 2.2 | 40.3 0.6 | 52 4 | 15 6 | 3.7 0.0 | SSE | 153 | 14.9 1.9 | NE | 34 | 1654 | 0.00 | 0.00 | 3.86 | 15.8 0.5 | 62.9 2.3 | 3 1 | 12.6 0.0 |
| Carson City (Voltaire Canyon) | 5/1/26 | 69.8 2.5 | 47.3 2.0 | 48 6 | 14 5 | 3.8 1.4 | N | 7 | 15.8 9.8 | SSW | 202 | 1558 | 0.00 | 0.00 | 0.09 | 2.8 0.0 | -10.8 0.0 | - | 12.6 0.0 |
| Jacks Valley | 5/1/26 | 69.5 3.0 | 43.5 3.0 | 48 5 | 15 4 | 3.3 0.5 | W | 266 | 19.1 1.1 | NW | 316 | 2054 | 0.00 | 0.01 | 1.98 | 10.2 0.3 | 61.2 2.6 | 6 1 | 12.6 0.0 |
| Genoa | 5/1/26 | 72.6 2.3 | 42.6 3.2 | 56 11 | 14 4 | 0.7 0.0 | NNE | 26 | 9.7 0.9 | NE | 36 | 1356 | 0.00 | 0.00 | 4.74 | 6.0 0.2 | 61.1 2.0 | 8 1 | 12.3 0.0 |
| South Genoa (Walleys Hot Springs) | 5/1/26 | 72.3 2.7 | 37.0 0.9 | 88 3 | 15 3 | 2.4 0.4 | ENE | 65 | 15.9 3.7 | W | 267 | 1922 | 0.00 | 0.00 | 2.95 | 13.6 0.0 | 62.9 2.1 | 6 0 | 12.5 0.0 |
| SW Gardnerville (HWY 88) | 5/1/26 | 70.6 1.9 | 33.9 1.5 | 84 4 | 18 1 | 3.3 0.0 | NW | 308 | 12.9 0.5 | NNE | 21 | 1556 | 0.00 | 0.00 | 0.56 | 3.4 0.0 | 58.6 1.8 | 8 0 | 12.4 0.0 |
| Sheridan | 5/1/26 | 70.9 1.8 | 39.6 2.4 | 66 8 | 17 1 | 3.2 0.2 | NW | 320 | 13.9 1.1 | NNE | 16 | 1453 | 0.00 | 0.00 | 3.06 | 2.6 0.2 | 62.7 1.7 | 6 1 | 12.5 0.0 |
| Ruhenstroth | 5/1/26 | 71.9 2.5 | 39.5 2.7 | 54 7 | 12 5 | 3.1 0.1 | SW | 224 | 16.8 2.5 | NNW | 336 | 1304 | 0.00 | 0.00 | 1.42 | 13.3 0.3 | 59.8 2.5 | 7 1 | 12.6 0.0 |
| Double Spring | 5/1/26 | 67.3 1.5 | 30.6 1.3 | 65 6 | 10 10 | 3.7 0.6 | SSW | 203 | 23.7 14.0 | SSE | 154 | 1109 | 0.00 | 0.00 | 1.54 | 28.9 0.0 | 55.2 0.5 | 6 1 | 12.6 0.0 |
| North Topaz Lake | 5/1/26 | 68.9 2.5 | 48.0 3.2 | 40 2 | 11 9 | 3.9 0.4 | NNE | 29 | 17.4 5.8 | ESE | 117 | 1405 | 0.00 | 0.00 | 1.09 | 9.3 0.1 | 62.9 2.5 | 5 1 | 12.6 0.0 |
| Wild Oat Mountain | 5/1/26 | 68.2 4.6 | 46.1 1.3 | 42 1 | 13 7 | 3.2 0.4 | NE | 51 | 18.6 0.1 | SW | 231 | 1603 | 0.00 | 0.00 | 1.25 | 16.8 0.1 | 60.2 2.3 | 5 1 | 12.6 0.0 |
| Smith Valley | 5/1/26 | 72.1 3.0 | 42.7 5.3 | 49 7 | 12 7 | 3.9 0.2 | NW | 320 | 14.4 1.4 | NE | 51 | 1527 | 0.00 | 0.00 | 0.86 | 6.1 0.0 | 63.9 3.5 | 5 1 | 12.6 0.0 |
| Pine Grove Mountain | 5/1/26 | 57.1 2.9 | 41.5 0.4 | 38 3 | 18 6 | 5.8 0.8 | ENE | 62 | 20.1 0.2 | N | 354 | 1449 | 0.00 | 0.08 | 0.34 | 14.5 0.0 | 52.8 2.4 | 4 1 | 12.6 0.0 |
| Paradise Hill | 5/1/26 | 71.7 4.7 | 38.6 2.7 | 49 21 | 14 7 | 5.4 1.9 | ENE | 57 | 20.5 0.0 | NNE | 19 | 0158 | 0.00 | 0.00 | 2.33 | 8.1 0.0 | 64.7 2.0 | 6 1 | 12.6 0.0 |
| Winnemucca | 5/1/26 | 71.5 3.8 | 38.5 0.4 | 49 22 | 12 8 | 7.1 0.9 | NE | 55 | 21.6 0.1 | E | 87 | 1302 | 0.00 | 0.09 | 2.90 | 5.9 0.1 | 62.4 2.3 | 2 2 | 12.6 0.0 |
| NE Elko | 5/1/26 | 68.1 4.7 | 33.9 8.8 | 43 43 | 14 7 | 3.1 0.3 | E | 86 | 16.9 7.4 | ENE | 64 | 1446 | 0.00 | 0.01 | 2.29 | 12.4 0.0 | 55.3 3.4 | 5 2 | 12.5 0.0 |
| North Elko | 5/1/26 | 65.1 3.8 | 41.6 6.7 | 34 42 | 12 10 | 6.8 1.1 | NNE | 32 | 18.8 3.1 | NE | 53 | 0755 | 0.00 | 0.00 | 2.04 | 28.4 0.1 | 57.9 4.0 | 4 2 | 12.6 0.0 |
| South Elko | 5/1/26 | - | 44.0 6.9 | 80 7 | 17 7 | 4.9 0.8 | ENE | 64 | 20.6 0.8 | ESE | 104 | 1124 | 0.00 | 0.00 | 2.67 | 19.0 0.0 | 58.6 4.9 | 4 2 | 12.6 0.0 |
| Lamoille | 1/27/26 | 42.4 2.7 | 21.5 6.4 | 60 0 | 25 6 | 2.6 0.5 | SE | 125 | 8.2 4.1 | SE | 139 | 0137 | 0.00 | 0.00 | 0.67 | 12.3 0.2 | 26.9 1.3 | 11 0 | 8.5 2.8 |
| Reid Gardner Sub | 5/1/26 | 86.2 0.6 | 62.8 14.5 | 27 25 | 9 2 | 4.7 1.0 | NNW | 340 | 20.2 1.7 | NNE | 16 | 1329 | 0.00 | 0.01 | 0.56 | 25.4 0.5 | 80.1 2.9 | 1 0 | 12.7 0.0 |
| Corn Creek | 5/1/26 | 79.4 0.4 | 62.6 8.0 | 26 3 | 12 3 | 8.6 1.6 | W | 262 | 27.6 5.3 | NW | 310 | 1428 | 0.00 | 0.00 | 0.63 | 4.1 0.0 | 73.9 1.4 | 2 0 | 12.6 0.0 |
| Lucky Strike | 5/1/26 | 67.8 1.0 | 53.6 1.2 | 29 3 | 14 4 | 9.3 1.8 | WNW | 302 | 32.2 1.6 | N | 4 | 1458 | 0.00 | 0.00 | 1.21 | 4.4 0.0 | 63.6 0.9 | 3 0 | 12.6 0.0 |
| Lower Angel Peak | 5/1/26 | 61.7 0.9 | 41.9 1.2 | 42 5 | 18 5 | 6.2 1.2 | SW | 236 | 29.1 8.7 | NW | 323 | 1427 | 0.00 | 0.02 | 1.93 | 10.6 0.1 | 55.0 1.1 | 3 1 | 12.6 0.0 |
| Angel Peak | 5/1/26 | 53.4 0.8 | 39.5 1.3 | 44 4 | 22 6 | 3.2 0.6 | NNE | 16 | 24.8 8.4 | NW | 308 | 1702 | 0.00 | 0.08 | 84.70 | 3.5 0.1 | 49.8 2.4 | 6 1 | 12.5 0.0 |
| Upper Kyle Canyon | 5/1/26 | 55.9 1.4 | 38.1 1.2 | 47 4 | 20 7 | 3.8 0.1 | NNW | 341 | 16.6 0.0 | NW | 310 | 1701 | 0.00 | 0.22 | 5.08 | 13.9 0.1 | 49.0 2.3 | 8 0 | 12.7 0.0 |
| Mt Charleston | 5/1/26 | 56.8 2.4 | 39.6 0.8 | 50 2 | 18 7 | 2.3 0.0 | W | 266 | 13.3 0.2 | N | 8 | 1722 | 0.00 | 0.30 | 5.28 | 18.5 0.1 | 50.2 0.2 | 29 0 | 12.6 0.0 |
| Mid Kyle Canyon | 5/1/26 | 63.8 2.3 | 42.6 0.6 | 43 2 | 17 5 | 8.3 0.3 | NW | 325 | 21.9 1.7 | NE | 49 | 1615 | 0.00 | 0.06 | 2.08 | 7.1 0.0 | 57.7 0.1 | 7 0 | 12.8 0.0 |
| Blue Diamond | 5/1/26 | 78.6 1.4 | 45.3 0.4 | 45 0 | 12 3 | 4.5 0.1 | N | 356 | 19.0 0.8 | SE | 133 | 1323 | 0.00 | 0.00 | 0.85 | 3.5 0.0 | - | 4 0 | 12.8 0.0 |
| Artesian Sub | 5/1/26 | 87.0 0.3 | 64.3 1.5 | 28 1 | 9 3 | 2.7 0.4 | NNE | 14 | 15.6 1.7 | N | 11 | 1126 | 0.00 | 0.00 | 0.35 | 13.5 0.1 | - | 0 0 | 12.7 0.0 |
| North Henderson | 5/1/26 | 86.0 0.0 | 69.2 4.6 | 23 6 | 9 3 | 5.0 0.1 | NNE | 27 | 18.8 3.1 | NNE | 19 | 0920 | 0.00 | 0.00 | 0.52 | 8.8 0.0 | 80.3 0.8 | 5 0 | 12.7 0.0 |
| Sandy Valley | 5/1/26 | 84.0 1.9 | 60.7 8.2 | 26 5 | 12 3 | 7.8 2.7 | ENE | 70 | 31.6 6.6 | ENE | 73 | 0001 | 0.00 | 0.00 | 0.62 | 4.6 0.0 | 77.8 4.1 | 3 0 | 12.7 0.0 |
| Searchlight | 5/1/26 | 78.4 1.6 | 55.0 4.0 | 28 3 | 16 0 | 11.7 1.8 | N | 4 | 31.4 3.5 | NNE | 28 | 1419 | 0.00 | 0.00 | 0.51 | 4.7 0.0 | 72.1 3.0 | 1 0 | 12.6 0.0 |
| Laughlin | 5/1/26 | 93.0 0.5 | 75.8 10.0 | 22 17 | 11 0 | 14.1 4.7 | N | 7 | 34.2 5.3 | NNE | 23 | 1552 | 0.00 | 0.00 | 0.29 | 4.2 0.0 | 85.1 3.0 | 3 0 | 12.8 0.0 |
| Max | 93.0 | 75.8 | 96 | 24 | 14.1 | - | 34.2 | - | - | 0.00 | - | 84.70 | 44.3 | 85.1 | 29 | 12.8 | |
| Avg | - | - | - | - | 4.2 | - | - | - | - | - | - | - | 13.2 | 56.4 | 6 | - | |
| Min | 53.4 | 27.5 | 22 | 9 | 0.0 | - | 7.3 | - | - | 0.00 | - | 0.09 | 1.5 | -17.7 | 0 | 12.3 |